Data for 09/30/2005

Time Sea-Level Adjusted Pressure Absolute Pressure Temperature Relative Humidity Dew Point   
(mb) (inHg) (mb) (inHg) (C) (F) (%) (C) (F)
00:05 1014 29.94 843 24.89 17.8 64.1 30 0.4 32.7
00:10 1014 29.94 843 24.89 17.5 63.4 33 1.1 33.9
00:15 1014 29.94 843 24.89 16.9 62.3 33 0.5 32.8
00:20 1014 29.94 843 24.89 16.9 62.3 32 0 32
00:25 1014 29.94 843 24.89 17.5 63.4 30 -0.3 31.5
00:30 1014 29.94 843 24.89 17.9 64.1 29 -0.1 31.8
00:35 1014 29.94 843 24.89 18 64.4 29 -0.1 31.8
00:40 1014 29.94 843 24.89 18 64.4 29 -0.3 31.5
00:45 1014 29.94 843 24.89 18.1 64.6 29 -0.2 31.6
00:50 1014 29.94 843 24.89 18.1 64.6 29 -0.3 31.5
00:55 1014 29.94 843 24.89 18.1 64.6 29 -0.3 31.5
01:00 1014 29.94 843 24.89 18.2 64.7 28 -0.5 31.1
01:05 1014 29.94 843 24.89 18.3 65 28 -0.5 31.1
01:10 1014 29.94 843 24.89 18.4 65.1 28 -0.4 31.4
01:15 1014 29.94 843 24.89 18.2 64.8 28 -0.4 31.3
01:20 1014 29.94 843 24.89 18.3 65 28 -0.3 31.4
01:25 1014 29.94 843 24.89 18.4 65.1 28 -0.3 31.4
01:30 1014 29.94 843 24.89 18.3 64.9 29 -0.2 31.7
01:35 1014 29.94 843 24.89 18.1 64.6 28 -0.3 31.4
01:40 1014 29.94 843 24.89 18.1 64.6 29 -0.2 31.7
01:45 1014 29.94 843 24.89 18.3 65 28 -0.4 31.3
01:50 1014 29.94 843 24.89 18.3 65 29 0 32
01:55 1014 29.94 843 24.89 18.1 64.6 29 0.1 32.2
02:00 1014 29.94 843 24.89 18.1 64.5 29 -0.1 31.8
02:05 1014 29.94 843 24.89 18 64.5 29 0 32.1
02:10 1014 29.94 843 24.89 18 64.3 29 -0.2 31.7
02:15 1014 29.94 843 24.89 18.2 64.8 28 -0.3 31.5
02:20 1014 29.94 843 24.89 18.3 65 29 0 32
02:25 1014 29.94 843 24.89 18.4 65 29 -0 31.9
02:30 1014 29.94 843 24.89 18.4 65 28 -0.2 31.7
02:35 1014 29.94 843 24.89 18.2 64.8 29 0.1 32.1
02:40 1014 29.94 843 24.89 17.8 64 29 -0.1 31.7
02:45 1014 29.94 843 24.89 17.4 63.4 30 -0.2 31.6
02:50 1014 29.94 843 24.89 17.1 62.7 31 -0 31.9
02:55 1014 29.94 843 24.89 16.9 62.5 31 -0.4 31.3
03:00 1014 29.94 843 24.89 16.6 61.8 32 -0.2 31.6
03:05 1014 29.94 843 24.89 16.3 61.4 32 -0.3 31.4
03:10 1014 29.94 843 24.89 16.5 61.7 32 -0.3 31.4
03:15 1014 29.94 843 24.89 16.5 61.7 32 -0.3 31.4
03:20 1014 29.94 843 24.89 16.8 62.2 31 -0.1 31.8
03:25 1014 29.94 843 24.89 17 62.5 30 -0.5 31
03:30 1014 29.94 843 24.89 17.5 63.4 30 -0.2 31.7
03:35 1014 29.94 843 24.89 17.4 63.4 31 0.2 32.3
03:40 1014 29.94 843 24.89 17.3 63.1 31 0 32.1
03:45 1014 29.94 843 24.89 17.2 62.9 31 0.1 32.2
03:50 1014 29.94 843 24.89 17.2 62.9 32 0.3 32.5
03:55 1014 29.94 843 24.89 17.1 62.7 32 0.2 32.3
04:00 1014 29.94 843 24.89 17.2 63 31 0 32.1
04:05 1014 29.94 843 24.89 17.4 63.4 31 0.2 32.4
04:10 1014 29.94 843 24.89 17.4 63.3 32 0.5 32.8
04:15 1014 29.94 843 24.89 17.1 62.8 32 0.5 33
04:20 1014 29.94 843 24.89 16.9 62.4 33 0.6 33.1
04:25 1014 29.94 843 24.89 16.7 62.1 34 0.8 33.5
04:30 1014 29.94 843 24.89 16.6 61.8 34 0.7 33.2
04:35 1014 29.94 843 24.89 16.8 62.3 33 0.6 33
04:40 1014 29.94 843 24.89 17.2 62.9 32 0.6 33.1
04:45 1014 29.94 843 24.89 17.3 63.2 32 0.8 33.5
04:50 1014 29.94 843 24.89 17.1 62.8 33 0.8 33.5
04:55 1014 29.94 843 24.89 17 62.6 34 1.1 33.9
05:00 1014 29.94 843 24.89 16.9 62.5 34 1.1 33.9
05:05 1014 29.94 843 24.89 17 62.6 34 1.1 34
05:10 1014 29.94 843 24.89 17.1 62.7 33 0.9 33.7
05:15 1014 29.94 843 24.89 17.3 63.1 33 1 33.8
05:20 1014 29.94 843 24.89 17.4 63.3 33 1 33.7
05:25 1013 29.91 843 24.89 17.7 63.8 32 0.7 33.2
05:30 1013 29.91 843 24.89 17.8 64 31 0.6 33
05:35 1013 29.91 843 24.89 18 64.3 31 0.6 33
05:40 1013 29.91 843 24.89 18 64.4 31 0.7 33.3
05:45 1013 29.91 843 24.89 18 64.3 31 0.7 33.2
05:50 1013 29.91 843 24.89 18 64.4 31 0.7 33.2
05:55 1013 29.91 843 24.89 18 64.4 31 0.7 33.2
06:00 1014 29.94 843 24.89 18 64.5 31 0.7 33.3
06:05 1014 29.94 843 24.89 17.9 64.2 31 0.6 33
06:10 1014 29.94 843 24.89 17.9 64.2 31 0.6 33
06:15 1014 29.94 843 24.89 17.8 64.1 31 0.5 32.9
06:20 1014 29.94 843 24.89 18 64.4 30 0.5 32.9
06:25 1014 29.94 843 24.89 18.2 64.7 30 0.5 33
06:30 1013 29.91 843 24.89 18.1 64.6 30 0.5 32.9
06:35 1013 29.91 843 24.89 18 64.5 31 0.8 33.5
06:40 1013 29.91 843 24.89 17.9 64.1 31 0.6 33.1
06:45 1013 29.91 843 24.89 18.2 64.8 31 0.7 33.3
06:50 1013 29.91 843 24.89 18.4 65 30 0.8 33.4
06:55 1013 29.91 843 24.89 18.4 65.1 31 0.9 33.6
07:00 1013 29.91 843 24.89 18.4 65.1 31 1.1 34
07:05 1013 29.91 842 24.86 18.3 64.9 31 1 33.8
07:10 1013 29.91 842 24.86 18.2 64.7 32 1.3 34.3
07:15 1013 29.91 843 24.89 17.9 64.2 32 1.1 34
07:20 1013 29.91 843 24.89 17.9 64.1 32 1.1 34
07:25 1013 29.91 843 24.89 17.8 64 33 1.4 34.5
07:30 1013 29.91 843 24.89 17.5 63.5 34 1.4 34.6
07:35 1013 29.91 843 24.89 17.5 63.5 33 1.3 34.4
07:40 1013 29.91 843 24.89 17.6 63.7 34 1.6 34.8
07:45 1014 29.94 843 24.89 17.5 63.5 34 1.6 34.9
07:50 1014 29.94 843 24.89 17.4 63.4 34 1.4 34.4
07:55 1014 29.94 843 24.89 17.5 63.5 34 1.4 34.6
08:00 1014 29.94 843 24.89 17.7 63.8 33 1.4 34.6
08:05 1014 29.94 843 24.89 17.7 63.9 33 1.5 34.6
08:10 1014 29.94 843 24.89 17.8 64 33 1.6 34.9
08:15 1014 29.94 843 24.89 17.8 64 34 1.7 35.1
08:20 1014 29.94 843 24.89 17.7 63.8 34 1.9 35.3
08:25 1014 29.94 843 24.89 17.8 64 35 2.1 35.8
08:30 1014 29.94 843 24.89 17.9 64.2 34 2.1 35.7
08:35 1014 29.94 843 24.89 18.4 65 34 2.5 36.5
08:40 1014 29.94 843 24.89 18.9 66.1 33 2.6 36.7
08:45 1014 29.94 843 24.89 19.5 67 33 2.8 37
08:50 1014 29.94 843 24.89 19.7 67.4 32 2.6 36.6
08:55 1014 29.94 843 24.89 20 68 31 2.4 36.3
09:00 1014 29.94 843 24.89 20.1 68.2 30 2.3 36.1
09:05 1014 29.94 843 24.89 20.6 69 30 2.5 36.5
09:10 1014 29.94 843 24.89 20.9 69.6 30 2.7 36.9
09:15 1014 29.94 843 24.89 21.2 70.1 29 2.5 36.6
09:20 1014 29.94 843 24.89 21.4 70.5 28 2.1 35.8
09:25 1014 29.94 843 24.89 21.4 70.5 28 2.4 36.4
09:30 1014 29.94 843 24.89 21.5 70.7 28 2.3 36.1
09:35 1014 29.94 843 24.89 21.6 71 27 1.9 35.4
09:40 1014 29.94 843 24.89 21.6 70.9 27 2.2 36
09:45 1014 29.94 843 24.89 21.9 71.5 27 2.4 36.3
09:50 1014 29.94 843 24.89 22 71.6 27 2.2 35.9
09:55 1014 29.94 843 24.89 21.7 71 28 2.7 36.9
10:00 1014 29.94 843 24.89 21.8 71.2 28 2.4 36.4
10:05 1014 29.94 843 24.89 21.9 71.4 28 2.6 36.6
10:10 1014 29.94 843 24.89 21.8 71.3 28 2.7 36.8
10:15 1014 29.94 843 24.89 22 71.6 27 2.3 36.2
10:20 1014 29.94 843 24.89 22 71.7 27 2.6 36.7
10:25 1014 29.94 843 24.89 22.2 71.9 27 2.7 36.8
10:30 1014 29.94 843 24.89 22.3 72.2 27 2.7 36.8
10:35 1014 29.94 843 24.89 22.3 72.1 27 2.3 36.2
10:40 1014 29.94 843 24.89 22.6 72.7 27 2.8 37
10:45 1014 29.94 843 24.89 22.9 73.3 26 2.6 36.6
10:50 1014 29.94 843 24.89 22.8 73 26 2.7 36.9
10:55 1014 29.94 843 24.89 22.5 72.6 26 2.5 36.5
11:00 1014 29.94 843 24.89 22.5 72.5 27 2.6 36.7
11:05 1014 29.94 843 24.89 22.5 72.5 27 2.5 36.5
11:10 1014 29.94 843 24.89 22.5 72.5 28 3.1 37.6
11:15 1014 29.94 843 24.89 22.6 72.6 26 2.4 36.3
11:20 1014 29.94 843 24.89 22.6 72.6 26 2.4 36.3
11:25 1014 29.94 843 24.89 22.4 72.3 27 2.7 36.9
11:30 1014 29.94 843 24.89 22.4 72.4 27 2.7 36.9
11:35 1014 29.94 843 24.89 21.9 71.5 28 2.9 37.1
11:40 1014 29.94 843 24.89 22 71.5 28 3 37.3
11:45 1014 29.94 843 24.89 22.1 71.7 28 3 37.4
11:50 1014 29.94 843 24.89 22.5 72.5 28 3.1 37.5
11:55 1014 29.94 843 24.89 22.8 73 26 2.6 36.7
12:00 1014 29.94 843 24.89 23.3 73.9 25 2.5 36.5
12:05 1014 29.94 843 24.89 23.3 73.9 26 2.9 37.2
12:10 1014 29.94 843 24.89 23.1 73.5 27 3 37.5
12:15 1014 29.94 843 24.89 22.9 73.2 27 3.1 37.5
12:20 1014 29.94 843 24.89 22.6 72.6 28 3.3 38
12:25 1014 29.94 843 24.89 22.4 72.3 28 3 37.4
12:30 1014 29.94 843 24.89 22.2 71.9 28 3 37.5
12:35 1014 29.94 843 24.89 22.2 71.9 28 3.1 37.6
12:40 1014 29.94 843 24.89 22.2 72 29 3.4 38.2
12:45 1014 29.94 843 24.89 22.3 72.1 29 3.8 38.8
12:50 1014 29.94 843 24.89 22.1 71.8 29 3.5 38.3
12:55 1014 29.94 843 24.89 22 71.6 30 3.8 38.9
13:00 1014 29.94 843 24.89 21.8 71.3 30 3.8 38.9
13:05 1014 29.94 843 24.89 21.9 71.4 30 3.6 38.5
13:10 1014 29.94 843 24.89 21.9 71.4 30 4 39.1
13:15 1014 29.94 843 24.89 21.9 71.5 31 4 39.2
13:20 1014 29.94 843 24.89 22 71.6 30 3.9 39
13:25 1014 29.94 843 24.89 22 71.5 31 4.2 39.6
13:30 1014 29.94 843 24.89 22.3 72.1 30 4 39.2
13:35 1013 29.91 843 24.89 22.4 72.3 29 3.8 38.8
13:40 1013 29.91 843 24.89 22.4 72.3 30 4.2 39.6
13:45 1013 29.91 843 24.89 22.5 72.5 29 3.9 39.1
13:50 1013 29.91 842 24.86 22.9 73.1 28 3.8 38.8
13:55 1013 29.91 842 24.86 22.9 73.3 29 4.1 39.4
14:00 1013 29.91 842 24.86 22.8 73 28 3.5 38.3
14:05 1013 29.91 842 24.86 22.7 72.8 29 3.9 39.1
14:10 1013 29.91 842 24.86 23.2 73.7 29 4.3 39.7
14:15 1013 29.91 842 24.86 22.8 73 30 4.7 40.4
14:20 1013 29.91 842 24.86 22.2 72 31 4.6 40.2
14:25 1013 29.91 842 24.86 22.2 71.9 31 4.3 39.7
14:30 1013 29.91 842 24.86 22.2 71.9 30 4.1 39.3
14:35 1013 29.91 842 24.86 22.4 72.2 30 4 39.3
14:40 1013 29.91 842 24.86 22.5 72.6 30 4.2 39.6
14:45 1013 29.91 842 24.86 23.3 73.9 29 4.3 39.7
14:50 1013 29.91 842 24.86 23.2 73.7 30 5 41
14:55 1013 29.91 842 24.86 23 73.5 29 4.1 39.3
15:00 1013 29.91 842 24.86 22.9 73.3 29 4.4 39.9
15:05 1013 29.91 842 24.86 22.9 73.2 30 4.6 40.3
15:10 1013 29.91 842 24.86 22.9 73.1 30 4.4 40
15:15 1013 29.91 842 24.86 22.7 72.9 30 4.4 39.9
15:20 1012 29.88 842 24.86 22.7 72.9 30 4.7 40.4
15:25 1012 29.88 842 24.86 22.8 73 30 4.6 40.2
15:30 1012 29.88 842 24.86 22.6 72.7 30 4.4 40
15:35 1012 29.88 842 24.86 22.6 72.6 31 4.7 40.4
15:40 1012 29.88 842 24.86 22.6 72.7 30 4.3 39.7
15:45 1012 29.88 842 24.86 22.8 73.1 29 4.1 39.4
15:50 1012 29.88 842 24.86 23.4 74.2 28 4.1 39.4
15:55 1012 29.88 841 24.83 23.4 74.1 28 4.2 39.6
16:00 1012 29.88 841 24.83 23.4 74.2 28 4.1 39.4
16:05 1012 29.88 841 24.83 23.4 74.2 29 4.6 40.3
16:10 1012 29.88 841 24.83 23.3 74 29 4.4 39.9
16:15 1012 29.88 841 24.83 23.1 73.6 28 4 39.2
16:20 1012 29.88 841 24.83 23 73.4 29 4.2 39.6
16:25 1012 29.88 841 24.83 23.1 73.5 29 4.2 39.5
16:30 1012 29.88 841 24.83 23.1 73.6 29 4.5 40.2
16:35 1012 29.88 841 24.83 22.8 73.1 31 4.9 40.8
16:40 1012 29.88 841 24.83 22.6 72.7 31 5 40.9
16:45 1012 29.88 841 24.83 22.4 72.4 31 4.9 40.8
16:50 1012 29.88 841 24.83 22.4 72.3 32 5.2 41.4
16:55 1012 29.88 841 24.83 22.4 72.3 31 4.8 40.6
17:00 1012 29.88 841 24.83 22.5 72.5 31 4.7 40.4
17:05 1011 29.85 841 24.83 22.6 72.7 29 3.8 38.9
17:10 1011 29.85 841 24.83 22.6 72.7 30 4.2 39.6
17:15 1011 29.85 841 24.83 22.6 72.7 29 4 39.2
17:20 1011 29.85 841 24.83 22.6 72.6 30 4.1 39.4
17:25 1011 29.85 841 24.83 22.4 72.3 31 4.4 40
17:30 1011 29.85 841 24.83 22.2 71.9 31 4.5 40.1
17:35 1011 29.85 841 24.83 22 71.5 31 4.1 39.5
17:40 1011 29.85 840 24.81 22 71.6 31 4.1 39.3
17:45 1011 29.85 841 24.83 22 71.5 31 4.3 39.7
17:50 1011 29.85 840 24.81 21.9 71.4 31 4.3 39.8
17:55 1011 29.85 840 24.81 21.8 71.3 31 4.2 39.6
18:00 1011 29.85 840 24.81 21.8 71.3 31 4.1 39.4
18:05 1011 29.85 840 24.81 21.9 71.4 31 4.2 39.5
18:10 1011 29.85 840 24.81 21.9 71.4 32 4.4 40
18:15 1011 29.85 840 24.81 21.7 71.1 32 4.4 40
18:20 1011 29.85 840 24.81 21.6 70.9 32 4.6 40.3
18:25 1011 29.85 840 24.81 21.5 70.8 32 4.3 39.7
18:30 1011 29.85 840 24.81 21.6 70.9 33 4.7 40.5
18:35 1011 29.85 840 24.81 21.5 70.6 33 4.6 40.2
18:40 1011 29.85 841 24.83 21.1 70 35 5.3 41.5
18:45 1011 29.85 840 24.81 20.8 69.5 33 4.1 39.5
18:50 1011 29.85 840 24.81 21.2 70.2 31 3.5 38.3
18:55 1011 29.85 840 24.81 21.4 70.5 30 3.5 38.3
19:00 1011 29.85 840 24.81 21.4 70.4 30 3 37.4
19:05 1011 29.85 840 24.81 21.3 70.3 31 3.5 38.3
19:10 1011 29.85 840 24.81 21.2 70.1 30 3 37.3
19:15 1011 29.85 840 24.81 21.1 70 29 2.5 36.5
19:20 1011 29.85 840 24.81 20.8 69.5 29 2.4 36.4
19:25 1011 29.85 840 24.81 20.5 68.9 29 2 35.6
19:30 1011 29.85 840 24.81 20.4 68.7 28 1.5 34.8
19:35 1011 29.85 840 24.81 20.5 68.9 28 1.7 35.1
19:40 1011 29.85 840 24.81 20.4 68.7 28 1.5 34.8
19:45 1011 29.85 840 24.81 20.3 68.5 27 1 33.7
19:50 1011 29.85 840 24.81 20.7 69.2 26 0.8 33.5
19:55 1011 29.85 840 24.81 20.8 69.4 27 1.1 33.9
20:00 1011 29.85 840 24.81 20.7 69.3 26 0.6 33
20:05 1011 29.85 840 24.81 20.6 69.1 27 1.2 34.1
20:10 1011 29.85 840 24.81 20.4 68.6 26 0.6 33
20:15 1011 29.85 840 24.81 20.4 68.6 26 0.6 33
20:20 1011 29.85 840 24.81 20.3 68.6 27 0.7 33.3
20:25 1011 29.85 840 24.81 20.3 68.5 27 0.6 33.1
20:30 1011 29.85 840 24.81 20.2 68.3 27 0.6 33
20:35 1011 29.85 840 24.81 19.9 67.9 29 1.3 34.4
20:40 1011 29.85 840 24.81 20 67.9 27 0.3 32.6
20:45 1011 29.85 840 24.81 20 68 26 0.2 32.4
20:50 1011 29.85 840 24.81 20.3 68.5 25 -0.1 31.8
20:55 1011 29.85 840 24.81 20.4 68.8 25 -0.3 31.4
21:00 1011 29.85 840 24.81 20.6 69 24 -0.3 31.4
21:05 1011 29.85 840 24.81 20.6 69 24 -0.5 31
21:10 1011 29.85 840 24.81 20.6 69 23 -1 30.2
21:15 1011 29.85 840 24.81 20.8 69.4 24 -0.6 30.9
21:20 1011 29.85 840 24.81 20.6 69 24 -0.4 31.2
21:25 1011 29.85 840 24.81 20.4 68.7 25 -0 32
21:30 1011 29.85 840 24.81 19.8 67.7 29 1.5 34.7
21:35 1011 29.85 840 24.81 19.1 66.4 28 0.5 32.8
21:40 1011 29.85 840 24.81 19 66.2 28 0.4 32.8
21:45 1011 29.85 840 24.81 19 66.1 32 1.9 35.5
21:50 1011 29.85 840 24.81 18.3 64.9 35 2.6 36.7
21:55 1011 29.85 840 24.81 17.8 64 38 3.3 38
22:00 1011 29.85 840 24.81 17.7 63.9 39 3.6 38.4
22:05 1011 29.85 840 24.81 17.5 63.5 40 3.9 39.1
22:10 1011 29.85 840 24.81 17.2 62.9 42 4.4 39.9
22:15 1011 29.85 840 24.81 16.9 62.5 43 4.3 39.7
22:20 1011 29.85 840 24.81 17 62.5 43 4.6 40.2
22:25 1011 29.85 840 24.81 17.1 62.7 44 4.7 40.5
22:30 1011 29.85 840 24.81 17.1 62.8 44 5 41
22:35 1011 29.85 840 24.81 17 62.6 44 4.9 40.8
22:40 1011 29.85 840 24.81 17 62.6 44 4.9 40.8
22:45 1011 29.85 840 24.81 17.1 62.7 44 4.9 40.9
22:50 1011 29.85 840 24.81 17 62.6 45 5 41
22:55 1011 29.85 840 24.81 16.8 62.3 45 5 41
23:00 1011 29.85 840 24.81 16.6 61.9 47 5.4 41.8
23:05 1011 29.85 840 24.81 16.2 61.2 48 5.2 41.3
23:10 1011 29.85 840 24.81 16.5 61.6 46 4.8 40.7
23:15 1011 29.85 840 24.81 16.7 62.1 46 5 41.1
23:20 1011 29.85 840 24.81 16.4 61.5 49 5.7 42.3
23:25 1011 29.85 840 24.81 15.8 60.5 50 5.4 41.8
23:30 1011 29.85 840 24.81 15.6 60.1 49 5.2 41.3
23:35 1011 29.85 840 24.81 15.9 60.7 49 5.4 41.8
23:40 1011 29.85 840 24.81 15.3 59.5 52 5.7 42.2
23:45 1011 29.85 840 24.81 15.6 60 48 4.8 40.7
23:50 1011 29.85 840 24.81 16.1 61 51 6.2 43.1
23:55 1011 29.85 840 24.81 15.5 59.9 52 5.8 42.5
24:00 1011 29.85 840 24.81 15.1 59.2 53 5.6 42